^^
Datos históricos de la estación: Murcia-Puente Tocinos
Diario Informe para Febrero 26, 2019 Unidades:  Ingés    Métrico   Ambas
Diario Semanal Mensual Anual
  Máxima: Mínima: Promedio:
Temperatura: 96.4 °F 74.1 °F 84.7 °F
Punto de rocio: 72.7 °F 56.8 °F 65.1 °F
Humedad: 87% 29% 56%
Velocidad viento: 12.5mph 0mph 4.7mph
Racha viento: 21mph - -
Viento- - SE
Presión: 29.9 in 29.7 in -
Precipitación: 0 in    
 
 
Tabla de datos para Febrero 26, 2019
Hora Temperatura Punto de rocio Presión Viento Velocidad viento Racha viento Humedad Intensidad lluvia(por hora) Nubes
00:04 78.3 °F 72.3 °F 29.9 in NE 5.4 mph 9 mph 82% 0 in
00:09 78.3 °F 72.1 °F 29.9 in NE 5.2 mph 8 mph 81.7% 0 in
00:14 78.3 °F 72 °F 29.9 in NE 4.7 mph 8.1 mph 81.1% 0 in
00:19 78.3 °F 72.1 °F 29.9 in NE 4.8 mph 8.1 mph 81.7% 0 in
00:24 78.3 °F 72.1 °F 29.9 in NE 5.2 mph 8 mph 81.3% 0 in
00:29 78.4 °F 72.1 °F 29.9 in NE 4.8 mph 7.6 mph 81% 0 in
00:34 78.4 °F 72.1 °F 29.9 in NE 4 mph 8 mph 81% 0 in
00:39 78.3 °F 72.3 °F 29.9 in NE 3.9 mph 7 mph 81.8% 0 in
00:44 78.3 °F 72.3 °F 29.9 in NNE 3.6 mph 6 mph 82% 0 in
00:49 78.3 °F 72.1 °F 29.9 in NNE 3.2 mph 5 mph 82% 0 in
00:54 78.1 °F 72.1 °F 29.9 in NNE 2.4 mph 5.2 mph 82.3% 0 in
00:59 78.1 °F 72.5 °F 29.9 in NNE 2.5 mph 5.8 mph 83% 0 in
01:04 78.1 °F 72.5 °F 29.9 in NNE 2.9 mph 6 mph 83% 0 in
01:09 78.1 °F 72.5 °F 29.9 in NNE 2.7 mph 6.2 mph 83.2% 0 in
01:14 77.7 °F 72.7 °F 29.9 in NNE 2.4 mph 6 mph 84% 0 in
01:19 77.7 °F 72.5 °F 29.9 in NE 2.7 mph 6.2 mph 84% 0 in
01:24 77.5 °F 72.7 °F 29.9 in NE 3.6 mph 6.9 mph 84.9% 0 in
01:29 77.4 °F 72.7 °F 29.9 in NNE 3.7 mph 7 mph 85% 0 in
01:34 77.4 °F 72.7 °F 29.9 in NNE 4 mph 7 mph 85.6% 0 in
01:39 77.2 °F 72.7 °F 29.9 in North 3.9 mph 6 mph 86% 0 in
01:44 77.2 °F 72.7 °F 29.9 in NNE 3.6 mph 5 mph 86% 0 in
01:49 77.2 °F 72.7 °F 29.9 in NE 3.4 mph 5.2 mph 86% 0 in
01:54 77.2 °F 72.7 °F 29.9 in NE 2.9 mph 5.8 mph 86% 0 in
01:59 77 °F 72.7 °F 29.9 in ENE 3 mph 6 mph 86.3% 0 in
02:04 76.8 °F 72.7 °F 29.9 in NE 3.1 mph 5.9 mph 87% 0 in
02:09 76.8 °F 72.7 °F 29.9 in NE 3.2 mph 6 mph 87% 0 in
02:14 76.8 °F 72.7 °F 29.9 in NE 3.6 mph 6 mph 87% 0 in
02:19 76.8 °F 72.7 °F 29.9 in NE 3.4 mph 5 mph 87% 0 in
02:24 76.6 °F 72.5 °F 29.9 in NE 2.9 mph 4 mph 87% 0 in
02:29 76.8 °F 72.7 °F 29.9 in ENE 2 mph 4 mph 87% 0 in
02:34 76.8 °F 72.5 °F 29.9 in Calm   4.3 mph 86.7% 0 in
02:39 76.8 °F 72.3 °F 29.8 in ESE 0.9 mph 5 mph 86% 0 in
02:44 76.8 °F 72.3 °F 29.8 in ESE 2.9 mph 5 mph 86% 0 in
02:49 76.8 °F 72.3 °F 29.8 in SE 2.6 mph 5 mph 86% 0 in
02:54 76.6 °F 72.1 °F 29.8 in SE 2 mph 5 mph 86% 0 in
02:59 76.6 °F 72.1 °F 29.8 in SE 1.4 mph   86% 0 in
03:04 76.6 °F 72.1 °F 29.8 in Calm   3.6 mph 86% 0 in
03:09 76.6 °F 72.1 °F 29.8 in OSO 0.4 mph 4 mph 86% 0 in
03:14 76.6 °F 72.1 °F 29.8 in OSO 1.4 mph 3 mph 86% 0 in
03:19 76.6 °F 72.1 °F 29.8 in OSO 1 mph   86% 0 in
03:24 76.6 °F 72.1 °F 29.8 in Calm   3.6 mph 86% 0 in
03:29 76.6 °F 72.1 °F 29.8 in Oeste 0.4 mph 4 mph 86% 0 in
03:34 76.6 °F 72 °F 29.8 in Sur 1.4 mph 4.7 mph 85.3% 0 in
03:39 76.6 °F 71.8 °F 29.8 in SE 1.6 mph 5 mph 84.8% 0 in
03:44 76.6 °F 71.1 °F 29.8 in SSE 2 mph 5.9 mph 83.3% 0 in
03:49 76.3 °F 69.8 °F 29.8 in SSO 2.5 mph 6.9 mph 80.3% 0 in
03:54 76.3 °F 68.7 °F 29.8 in Sur 3.6 mph 7 mph 77.6% 0 in
03:59 76.3 °F 68.4 °F 29.8 in SSO 3.6 mph 6 mph 76.3% 0 in
04:04 76.3 °F 68.2 °F 29.8 in SO 3.6 mph 5.8 mph 76% 0 in
04:09 76.5 °F 68.4 °F 29.8 in SO 3.4 mph 6.9 mph 76% 0 in
04:14 76.6 °F 68.5 °F 29.8 in SO 3.1 mph 7 mph 76% 0 in
04:19 76.6 °F 68.5 °F 29.8 in SO 3 mph 6 mph 76% 0 in
04:24 76.6 °F 68.5 °F 29.8 in OSO 2.9 mph 6 mph 76% 0 in
04:29 76.6 °F 68.5 °F 29.8 in Oeste 2.9 mph 6 mph 76% 0 in
04:34 76.5 °F 68.5 °F 29.8 in Oeste 2.9 mph 5 mph 76.7% 0 in
04:39 76.5 °F 68.7 °F 29.8 in OSO 2.6 mph 5 mph 77.1% 0 in
04:44 76.5 °F 69.1 °F 29.8 in SO 2 mph 6.9 mph 78% 0 in
04:49 76.5 °F 69.1 °F 29.8 in OSO 2.5 mph 7 mph 78% 0 in
04:54 76.5 °F 68.9 °F 29.8 in Sur 3.6 mph 6.4 mph 77.4% 0 in
04:59 76.3 °F 68.5 °F 29.8 in Sur 3.6 mph 7 mph 77% 0 in
05:04 76.1 °F 68.4 °F 29.8 in SSO 3.6 mph 8.1 mph 77% 0 in
05:09 75.9 °F 67.8 °F 29.8 in SSO 4.1 mph 9.2 mph 75.9% 0 in
05:14 75.7 °F 67.3 °F 29.8 in SSO 5.4 mph 9 mph 75% 0 in
05:19 75.7 °F 66.9 °F 29.8 in SO 5.4 mph 8.1 mph 74.3% 0 in
05:24 75.7 °F 67.3 °F 29.8 in SSO 5.4 mph 8 mph 75% 0 in
05:29 75.7 °F 67.3 °F 29.8 in SSO 4.8 mph 6.2 mph 75.3% 0 in
05:34 75.7 °F 67.6 °F 29.8 in SSO 3.6 mph 6 mph 76% 0 in
05:39 75.7 °F 67.6 °F 29.8 in SSO 3.6 mph 6 mph 76.2% 0 in
05:44 75.7 °F 67.6 °F 29.8 in SO 3.6 mph 6 mph 76% 0 in
05:49 75.7 °F 67.5 °F 29.8 in SO 3.4 mph 8.1 mph 75.5% 0 in
05:54 75.7 °F 67.3 °F 29.8 in OSO 3.1 mph 8.1 mph 75% 0 in
05:59 75.7 °F 67.3 °F 29.8 in SO 3.7 mph 8 mph 75% 0 in
06:04 75.7 °F 67.3 °F 29.8 in SO 4.7 mph 7 mph 75% 0 in
06:09 75.7 °F 67.5 °F 29.8 in SO 4.4 mph 7 mph 75.6% 0 in
06:14 75.6 °F 67.5 °F 29.8 in OSO 3.6 mph 6 mph 76% 0 in
06:19 75.6 °F 67.1 °F 29.8 in ONO 3.4 mph 6 mph 75.1% 0 in
06:24 75.4 °F 66.9 °F 29.8 in Oeste 2.9 mph 5.2 mph 75% 0 in
06:29 75 °F 66.9 °F 29.8 in OSO 2.7 mph 5 mph 76% 0 in
06:34 75 °F 66.9 °F 29.8 in OSO 2.4 mph 5 mph 76% 0 in
06:39 75 °F 66.9 °F 29.8 in OSO 1.7 mph   76% 0 in
06:44 75 °F 66.9 °F 29.8 in Calm     76% 0 in
06:49 75 °F 66.9 °F 29.8 in Calm   3.6 mph 75.9% 0 in
06:54 74.8 °F 66.7 °F 29.8 in Calm   4.3 mph 75.9% 0 in
06:59 74.7 °F 66.6 °F 29.8 in SSE 0.9 mph 5.9 mph 76% 0 in
07:04 74.5 °F 66.4 °F 29.8 in SSE 2.9 mph 6.2 mph 76.3% 0 in
07:09 74.1 °F 66.4 °F 29.8 in ESE 3.1 mph 6 mph 77% 0 in
07:14 74.1 °F 66.6 °F 29.8 in SE 3.6 mph 5 mph 77% 0 in
07:19 74.1 °F 66.4 °F 29.8 in SSE 3.4 mph 6.9 mph 77% 0 in
07:24 74.1 °F 66.4 °F 29.8 in SSE 2.9 mph 7 mph 77% 0 in
07:29 74.1 °F 66.4 °F 29.8 in Sur 3.4 mph 7 mph 76.8% 0 in
07:34 74.3 °F 66.2 °F 29.8 in Sur 4.7 mph 6 mph 76% 0 in
07:39 74.5 °F 66.4 °F 29.8 in Sur 4.5 mph 6.9 mph 76% 0 in
07:44 74.5 °F 66 °F 29.8 in Sur 4 mph 7 mph 75.1% 0 in
07:49 74.5 °F 65.5 °F 29.8 in SSO 4 mph 8.5 mph 73.3% 0 in
07:54 74.7 °F 64.8 °F 29.8 in SO 4 mph 9 mph 71.2% 0 in
07:59 74.8 °F 63.7 °F 29.8 in SO 4.2 mph 9 mph 68.2% 0 in
08:04 74.8 °F 63.3 °F 29.8 in OSO 4.7 mph 10.7 mph 67.4% 0 in
08:09 74.8 °F 63.3 °F 29.8 in OSO 4.9 mph 11 mph 67.4% 0 in
08:14 75 °F 63.9 °F 29.8 in OSO 5.4 mph 10 mph 68.2% 0 in
08:19 75 °F 64.2 °F 29.8 in Oeste 5.1 mph 7.4 mph 69% 0 in
08:24 75.2 °F 64.2 °F 29.8 in Oeste 4.3 mph 7.6 mph 69% 0 in
08:29 75.2 °F 64 °F 29.8 in Oeste 4.3 mph 8.1 mph 68.3% 0 in
08:34 75 °F 63.9 °F 29.8 in Oeste 4.3 mph 8 mph 68.1% 0 in
08:39 75.2 °F 63.9 °F 29.8 in OSO 4 mph 5.2 mph 68% 0 in
08:44 75.4 °F 63.9 °F 29.8 in OSO 3.1 mph 5.9 mph 67.2% 0 in
08:49 75.7 °F 63.7 °F 29.8 in OSO 3.1 mph 6 mph 66.5% 0 in
08:54 76.1 °F 63.7 °F 29.8 in Oeste 3.1 mph 6 mph 65.7% 0 in
08:59 76.3 °F 63.7 °F 29.8 in Oeste 2.9 mph 6.2 mph 65.1% 0 in
09:04 76.5 °F 63.9 °F 29.8 in Oeste 2.4 mph 6 mph 65.1% 0 in
09:09 76.6 °F 64 °F 29.8 in SO 2.5 mph 5.4 mph 65.1% 0 in
09:14 77.2 °F 64.2 °F 29.8 in Sur 2.9 mph 6 mph 64.4% 0 in
09:19 77.4 °F 64.2 °F 29.8 in SE 3.3 mph 7.4 mph 64% 0 in
09:24 77.5 °F 64.8 °F 29.8 in SSE 4.3 mph 7 mph 64.5% 0 in
09:29 78.1 °F 64.8 °F 29.8 in SSE 4.1 mph 6 mph 64% 0 in
09:34 78.3 °F 64.8 °F 29.8 in SSE 3.6 mph 6.2 mph 63.2% 0 in
09:39 78.6 °F 64.9 °F 29.8 in ESE 3.2 mph 6 mph 63% 0 in
09:44 79 °F 65.3 °F 29.8 in ESE 2.4 mph 5.2 mph 63% 0 in
09:49 79.2 °F 65.1 °F 29.8 in ESE 2.5 mph 5.8 mph 62.3% 0 in
09:54 79.7 °F 65.3 °F 29.8 in SE 2.9 mph 6 mph 61.4% 0 in
09:59 80.4 °F 65.5 °F 29.8 in SE 2.5 mph 5.8 mph 60.3% 0 in
10:04 81 °F 65.3 °F 29.8 in Sur 1.8 mph 6 mph 58.9% 0 in
10:09 81.3 °F 65.1 °F 29.8 in SSO 1.8 mph 5 mph 58.1% 0 in
10:14 81.7 °F 65.7 °F 29.8 in SSE 1.8 mph 6.2 mph 58.4% 0 in
10:19 81.7 °F 65.5 °F 29.8 in SSE 2 mph 6.2 mph 58% 0 in
10:24 81.9 °F 66 °F 29.8 in SSE 2.4 mph 6 mph 58.5% 0 in
10:29 82.2 °F 65.8 °F 29.8 in SE 2.5 mph 6.4 mph 57.9% 0 in
10:34 82.2 °F 65.7 °F 29.8 in SE 2.9 mph 7 mph 57.5% 0 in
10:39 82.2 °F 65.1 °F 29.8 in SE 3.1 mph 6.2 mph 56.3% 0 in
10:44 82.6 °F 64.9 °F 29.8 in SSO 3.6 mph 6 mph 55.3% 0 in
10:49 82.8 °F 64.8 °F 29.8 in Sur 3.2 mph 5 mph 54.9% 0 in
10:54 83.3 °F 64.8 °F 29.8 in SO 2.4 mph 6.2 mph 53.6% 0 in
10:59 83.5 °F 64.4 °F 29.8 in Oeste 2.4 mph 6 mph 52.7% 0 in
11:04 83.8 °F 64.6 °F 29.8 in ONO 2.4 mph 5 mph 52.7% 0 in
11:09 84.4 °F 64.4 °F 29.8 in SE 2.2 mph 5 mph 51.3% 0 in
11:14 84.9 °F 64.2 °F 29.8 in NE 1.8 mph 5 mph 50% 0 in
11:19 85.3 °F 64 °F 29.8 in Oeste 2 mph 5.2 mph 49.2% 0 in
11:24 85.5 °F 64.6 °F 29.8 in OSO 2.4 mph 5 mph 49.8% 0 in
11:29 86 °F 64.6 °F 29.8 in OSO 2.2 mph 4.7 mph 49% 0 in
11:34 86.4 °F 64.4 °F 29.8 in NNO 1.8 mph 6.9 mph 47.9% 0 in
11:39 86.4 °F 64.2 °F 29.8 in North 2.2 mph 7 mph 47.7% 0 in
11:44 86.5 °F 64 °F 29.8 in NNE 3.1 mph 5.2 mph 47.2% 0 in
11:49 87.1 °F 64.4 °F 29.8 in North 3 mph 5 mph 47% 0 in
11:54 87.4 °F 64.2 °F 29.8 in NNO 2.9 mph 5.9 mph 46.1% 0 in
11:59 88 °F 64.6 °F 29.8 in ENE 2.7 mph 6.2 mph 46.1% 0 in
12:04 88.2 °F 64.4 °F 29.8 in Este 2.4 mph 6 mph 45.3% 0 in
12:09 88.3 °F 63.9 °F 29.8 in ESE 2.8 mph 7.4 mph 44.1% 0 in
12:14 88.5 °F 63.5 °F 29.8 in NE 3.6 mph 7 mph 43.6% 0 in
12:19 88.7 °F 62.8 °F 29.8 in NNE 3.7 mph 8.1 mph 42.3% 0 in
12:24 88.9 °F 61.3 °F 29.8 in NNO 4 mph 8 mph 40% 0 in
12:29 88.9 °F 61.2 °F 29.8 in North 4.2 mph 7 mph 39.6% 0 in
12:34 89.1 °F 61.2 °F 29.8 in NO 4.7 mph 7 mph 39.4% 0 in
12:39 89.4 °F 60.4 °F 29.8 in NO 4.3 mph 7 mph 38% 0 in
12:44 90 °F 60.6 °F 29.8 in NNE 3.6 mph 6 mph 37.6% 0 in
12:49 90.3 °F 59.5 °F 29.8 in ENE 3.4 mph 6 mph 35.8% 0 in
12:54 90.5 °F 59.5 °F 29.8 in ENE 2.9 mph 6 mph 35.6% 0 in
12:59 91 °F 59.7 °F 29.8 in Oeste 2.9 mph 8.1 mph 35.2% 0 in
13:04 91.6 °F 59.4 °F 29.8 in ONO 2.9 mph 8.1 mph 34.3% 0 in
13:09 91.9 °F 59.5 °F 29.8 in Oeste 3 mph 8 mph 34% 0 in
13:14 92.3 °F 59.9 °F 29.8 in SO 3.1 mph 7 mph 34.1% 0 in
13:19 92.7 °F 60.1 °F 29.8 in NE 3.2 mph 8.5 mph 34% 0 in
13:24 91.9 °F 59.5 °F 29.8 in NE 3.6 mph 9 mph 34% 0 in
13:29 91.8 °F 59.4 °F 29.8 in NNE 3.6 mph 7.4 mph 34.1% 0 in
13:34 91.8 °F 59.7 °F 29.8 in NNE 3.6 mph 7 mph 34.4% 0 in
13:39 91.8 °F 59.4 °F 29.8 in NE 3.6 mph 8.5 mph 34% 0 in
13:44 91.8 °F 59.4 °F 29.8 in NE 3.6 mph 9 mph 34% 0 in
13:49 91.6 °F 59.2 °F 29.8 in NE 3.7 mph 7 mph 34% 0 in
13:54 91.9 °F 59.4 °F 29.7 in NE 4 mph 6 mph 33.9% 0 in
13:59 92.3 °F 58.8 °F 29.7 in NE 3.7 mph 7.4 mph 32.9% 0 in
14:04 92.7 °F 59.4 °F 29.7 in NNE 2.9 mph 8.1 mph 33% 0 in
14:09 92.8 °F 59 °F 29.7 in NNE 3.2 mph 9.7 mph 32.4% 0 in
14:14 93 °F 58.1 °F 29.7 in North 4 mph 10 mph 31.2% 0 in
14:19 93.4 °F 58.6 °F 29.7 in NNE 4 mph 8.5 mph 31.4% 0 in
14:24 93.4 °F 57.6 °F 29.7 in NNE 4 mph 10.4 mph 30.4% 0 in
14:29 93.6 °F 56.8 °F 29.7 in NE 4.1 mph 10 mph 29.2% 0 in
14:34 94.1 °F 57.6 °F 29.7 in NNO 4.3 mph 7 mph 29.7% 0 in
14:39 94.5 °F 57.4 °F 29.7 in NNO 3.9 mph 8.5 mph 29% 0 in
14:44 94.6 °F 57.4 °F 29.7 in Este 3.1 mph 9.7 mph 29% 0 in
14:49 94.6 °F 57.4 °F 29.7 in ESE 3.2 mph 10 mph 29% 0 in
14:54 94.6 °F 57.6 °F 29.7 in OSO 3.6 mph 8.1 mph 29% 0 in
14:59 95.2 °F 58.6 °F 29.7 in SE 3.6 mph 11.5 mph 29.7% 0 in
15:04 95.2 °F 61 °F 29.7 in ESE 3.6 mph 14 mph 32.4% 0 in
15:09 95.2 °F 63.7 °F 29.7 in ESE 4.6 mph 14 mph 35.7% 0 in
15:14 94.8 °F 63.3 °F 29.7 in ESE 6.9 mph 15 mph 35.5% 0 in
15:19 94.6 °F 64.6 °F 29.7 in SE 6.9 mph 15 mph 37.2% 0 in
15:24 94.8 °F 66 °F 29.7 in SE 6.9 mph 14 mph 39% 0 in
15:29 95 °F 66.2 °F 29.7 in ESE 7.3 mph 14 mph 39.1% 0 in
15:34 94.6 °F 66.9 °F 29.7 in ESE 8.1 mph 14 mph 40.3% 0 in
15:39 94.6 °F 67.1 °F 29.7 in ESE 7.7 mph 13 mph 40.7% 0 in
15:44 94.8 °F 67.5 °F 29.7 in Este 6.9 mph 13 mph 41% 0 in
15:49 95.2 °F 67.8 °F 29.7 in ESE 7.3 mph 18.4 mph 41% 0 in
15:54 95.2 °F 68.2 °F 29.7 in Este 8.1 mph 18 mph 41.6% 0 in
15:59 95.2 °F 68 °F 29.7 in Este 8.3 mph 18.4 mph 41.5% 0 in
16:04 94.8 °F 68.4 °F 29.7 in ESE 8.7 mph 18 mph 42.3% 0 in
16:09 95 °F 68 °F 29.7 in SE 8.8 mph 17 mph 41.6% 0 in
16:14 95.2 °F 67.8 °F 29.7 in ESE 9.2 mph 16 mph 41% 0 in
16:19 95.4 °F 68 °F 29.7 in SE 8.8 mph 16.1 mph 41% 0 in
16:24 95.4 °F 67.3 °F 29.7 in ESE 8.1 mph 17.3 mph 40.1% 0 in
16:29 95.4 °F 66.4 °F 29.7 in SE 8.8 mph 17 mph 39% 0 in
16:34 95.4 °F 66.6 °F 29.7 in ESE 10.2 mph 19.6 mph 39.2% 0 in
16:39 95 °F 65.8 °F 29.7 in ESE 10.6 mph 20 mph 38.5% 0 in
16:44 95 °F 65.7 °F 29.7 in ESE 11.4 mph 19 mph 38.3% 0 in
16:49 95.2 °F 65.1 °F 29.7 in ESE 11.4 mph 18.4 mph 37.4% 0 in
16:54 95 °F 64.6 °F 29.7 in SE 11.2 mph 18 mph 37% 0 in
16:59 95.5 °F 63.7 °F 29.7 in ESE 11.1 mph 17 mph 35.4% 0 in
17:04 95.9 °F 63 °F 29.7 in ESE 10.7 mph 18.4 mph 34% 0 in
17:09 96.1 °F 62.2 °F 29.7 in SE 10.7 mph 18 mph 33.1% 0 in
17:14 96.3 °F 61.7 °F 29.7 in ESE 10.7 mph 16.1 mph 32% 0 in
17:19 96.3 °F 61.5 °F 29.7 in SE 10.6 mph 16 mph 32% 0 in
17:24 96.4 °F 61.5 °F 29.7 in SE 10.2 mph 17.3 mph 31.8% 0 in
17:29 96.3 °F 61.3 °F 29.7 in SE 10.1 mph 17 mph 31.7% 0 in
17:34 96.3 °F 61.3 °F 29.7 in SE 10 mph 16.3 mph 31.6% 0 in
17:39 96.4 °F 60.4 °F 29.7 in SE 9.6 mph 18.4 mph 30.5% 0 in
17:44 96.3 °F 59.5 °F 29.7 in SE 8.7 mph 18.4 mph 29.7% 0 in
17:49 96.3 °F 58.8 °F 29.7 in SE 9.4 mph 18.5 mph 29% 0 in
17:54 96.1 °F 59.5 °F 29.7 in SSE 11.8 mph 19 mph 30% 0 in
17:59 96.3 °F 59.7 °F 29.7 in SE 11.7 mph 17.8 mph 30% 0 in
18:04 96.1 °F 59.5 °F 29.7 in SE 11.4 mph 18.5 mph 29.9% 0 in
18:09 95.9 °F 59.2 °F 29.7 in SE 11.7 mph 20.8 mph 29.6% 0 in
18:14 95.7 °F 59.4 °F 29.7 in SE 12.3 mph 21 mph 30.1% 0 in
18:19 95.5 °F 59.5 °F 29.7 in SE 12.4 mph 20 mph 30.4% 0 in
18:24 95.2 °F 59.7 °F 29.7 in SE 12.5 mph 20 mph 30.9% 0 in
18:29 95.5 °F 60.1 °F 29.7 in SE 12.2 mph 19 mph 31% 0 in
18:34 95.5 °F 60.1 °F 29.7 in SE 11.4 mph 18.4 mph 31% 0 in
18:39 95.4 °F 59.9 °F 29.7 in SE 11.1 mph 18 mph 31% 0 in
18:44 95.4 °F 59.5 °F 29.7 in SE 10.2 mph 18.4 mph 30.6% 0 in
18:49 95.4 °F 60.4 °F 29.7 in SE 10.1 mph 18 mph 31.5% 0 in
18:54 95 °F 61 °F 29.7 in SE 10 mph 17.5 mph 32.4% 0 in
18:59 94.6 °F 61.7 °F 29.7 in SE 10.3 mph 17 mph 33.6% 0 in
19:04 94.8 °F 62.1 °F 29.7 in SE 10.7 mph 16 mph 34% 0 in
19:09 94.6 °F 62.1 °F 29.7 in SE 10 mph 15.2 mph 34% 0 in
19:14 94.6 °F 61.9 °F 29.7 in SSE 8.5 mph 15 mph 34% 0 in
19:19 94.6 °F 61.5 °F 29.7 in ESE 8.1 mph 12 mph 33.5% 0 in
19:24 94.5 °F 61 °F 29.7 in SE 7.4 mph 12 mph 33% 0 in
19:29 94.5 °F 60.4 °F 29.7 in SE 7.2 mph 13.8 mph 32.5% 0 in
19:34 94.6 °F 60.6 °F 29.7 in SE 6.9 mph 14 mph 32.5% 0 in
19:39 94.8 °F 60.4 °F 29.7 in SSE 6.4 mph 8.1 mph 32.2% 0 in
19:44 94.8 °F 60.1 °F 29.7 in SSE 5.2 mph 8.1 mph 31.7% 0 in
19:49 94.8 °F 59.7 °F 29.7 in SE 5 mph 8 mph 31.3% 0 in
19:54 94.6 °F 59.4 °F 29.7 in SE 4.7 mph 8.1 mph 31% 0 in
19:59 94.6 °F 59.4 °F 29.7 in SSE 4.5 mph 8 mph 31% 0 in
20:04 94.6 °F 59.4 °F 29.7 in SE 4 mph 8.7 mph 31% 0 in
20:09 94.6 °F 59.4 °F 29.7 in SE 4.3 mph 9.2 mph 31% 0 in
20:14 94.5 °F 59.5 °F 29.7 in ESE 5.2 mph 8.5 mph 31.5% 0 in
20:19 93.9 °F 59.5 °F 29.7 in ESE 5.2 mph 9 mph 32% 0 in
20:24 93.7 °F 59.5 °F 29.7 in ESE 5.2 mph 8.1 mph 32.3% 0 in
20:29 93.4 °F 59.9 °F 29.7 in ESE 5.3 mph 8.5 mph 32.8% 0 in
20:34 93 °F 59.5 °F 29.7 in ESE 5.4 mph 9.2 mph 32.8% 0 in
20:39 92.8 °F 59.5 °F 29.7 in ESE 5.7 mph 9 mph 33% 0 in
20:44 92.7 °F 59.9 °F 29.7 in ESE 6.2 mph 9.2 mph 33.6% 0 in
20:49 92.7 °F 60.1 °F 29.7 in SE 5.9 mph 9 mph 34% 0 in
20:54 92.5 °F 60.6 °F 29.7 in SE 5.2 mph 9.2 mph 34.8% 0 in
20:59 92.1 °F 60.6 °F 29.7 in SE 4.9 mph 8 mph 35% 0 in
21:04 92.1 °F 60.4 °F 29.7 in SE 4.3 mph 6.2 mph 35% 0 in
21:09 92.1 °F 60.4 °F 29.7 in SE 3.9 mph 6 mph 35% 0 in
21:14 92.1 °F 60.4 °F 29.7 in SSE 3.1 mph 5 mph 35% 0 in
21:19 92.1 °F 59.9 °F 29.7 in SO 2.7 mph 4.7 mph 34.3% 0 in
21:24 92.3 °F 60.3 °F 29.7 in OSO 2 mph 5.9 mph 34.5% 0 in
21:29 92.3 °F 60.6 °F 29.7 in OSO 2.4 mph 6 mph 35% 0 in
21:34 92.3 °F 60.8 °F 29.7 in ONO 3.1 mph 5.2 mph 35% 0 in
21:39 92.1 °F 61.2 °F 29.7 in NNO 3 mph 5 mph 35.7% 0 in
21:44 91.8 °F 61 °F 29.7 in NNO 2.9 mph 5 mph 36% 0 in
21:49 91 °F 61.9 °F 29.7 in North 2.9 mph 15.2 mph 38.1% 0 in
21:54 89.1 °F 65.1 °F 29.7 in NNE 3.1 mph 15 mph 45.2% 0 in
21:59 87.1 °F 66.2 °F 29.7 in NE 4.7 mph 13 mph 50.2% 0 in
22:04 85.8 °F 67.5 °F 29.7 in NE 7.6 mph 17.3 mph 54.4% 0 in
22:09 84.7 °F 67.8 °F 29.7 in NE 7.6 mph 17 mph 57% 0 in
22:14 84.2 °F 68 °F 29.7 in NE 7.6 mph 13 mph 58.4% 0 in
22:19 83.8 °F 67.8 °F 29.7 in NE 7.5 mph 12.7 mph 58.6% 0 in
22:24 83.7 °F 67.1 °F 29.7 in NE 7.4 mph 14.5 mph 57.5% 0 in
22:29 83.5 °F 66.2 °F 29.7 in NNE 7.6 mph 15 mph 56% 0 in
22:34 83.5 °F 66 °F 29.7 in NNE 8.1 mph 15 mph 56% 0 in
22:39 83.3 °F 66.4 °F 29.7 in NNE 7.9 mph 13 mph 56.8% 0 in
22:44 83.1 °F 66.4 °F 29.7 in NNE 7.4 mph 12 mph 57% 0 in
22:49 82.9 °F 66.4 °F 29.7 in NE 7 mph 10.4 mph 57.6% 0 in
22:54 82.9 °F 66.6 °F 29.7 in NE 5.9 mph 10 mph 58% 0 in
22:59 82.8 °F 66.6 °F 29.7 in NE 5.7 mph 11.2 mph 58% 0 in
23:04 82.8 °F 66.6 °F 29.7 in NE 5.4 mph 12 mph 58.3% 0 in
23:09 82.6 °F 66.7 °F 29.7 in NNE 5.7 mph 10 mph 59% 0 in
23:14 82.4 °F 66.6 °F 29.7 in NNE 6.2 mph 10.7 mph 59% 0 in
23:19 82.2 °F 66.9 °F 29.7 in NNE 6.2 mph 11 mph 59.9% 0 in
23:24 82 °F 66.6 °F 29.7 in NNE 6.2 mph 10 mph 59.5% 0 in
23:29 82 °F 66.4 °F 29.7 in NNE 5.9 mph 9 mph 59% 0 in
23:34 82 °F 66.7 °F 29.7 in NNE 5.2 mph 7 mph 59.8% 0 in
23:39 82 °F 66.7 °F 29.7 in NNE 4.7 mph 6.9 mph 60% 0 in
23:44 82 °F 66.9 °F 29.7 in NNE 3.6 mph 7 mph 60.2% 0 in
23:49 81.9 °F 67.1 °F 29.7 in NNE 3.6 mph 7 mph 61% 0 in
23:54 81.9 °F 67.1 °F 29.7 in NNE 3.6 mph 7 mph 61% 0 in
23:59 81.7 °F 67.1 °F 29.7 in NNE 3.4 mph 5.9 mph 61.2% 0 in
Murcia-Puente Tocinos, España
Compliments of Weather Underground - 3 mb

La estación de MeteoMurcia.com, publica sus datos en los siguientes proyectos:

Weather Underground PWS IMURCIAP2 Meteoclimatic www.awekas.at

W3Counter
Web Analytics